NORTHEAST SUFFOLK  -  Winter Weather Advisory Winter Weather Advisory        NORTHERN NASSAU  -  Winter Weather Advisory Winter Weather Advisory        NORTHWEST SUFFOLK  -  Winter Weather Advisory Winter Weather Advisory        SOUTHEAST SUFFOLK  -  Winter Weather Advisory Winter Weather Advisory        SOUTHERN NASSAU  -  Winter Weather Advisory Winter Weather Advisory        SOUTHWEST SUFFOLK  -  Winter Weather Advisory Winter Weather Advisory      

Active alerts

Northern Nassau
  Details for Northern Nassau Winter Weather Advisory
Southern Nassau
  Details for Southern Nassau Winter Weather Advisory
Northwest Suffolk
  Details for Northwest Suffolk Winter Weather Advisory
Southwest Suffolk
  Details for Southwest Suffolk Winter Weather Advisory
Northeast Suffolk
  Details for Northeast Suffolk Winter Weather Advisory
Southeast Suffolk
  Details for Southeast Suffolk Winter Weather Advisory


WXM80 ListenWXM80 Stop

You find our weather info also at:

UK Metoffice

WeatherCloud

Weather Underground

Northeastern Weather Network

AWEKAS

Citizen Weather Observer Program (CWOP)

HAMweather, WeatherForYou, PWS Weather


Weather Underground History page Text

Daily Summary for June 15, 2017 Units:  Both    English   Metric
« Previous Day
Next Day »
Daily Weekly Monthly Yearly Custom
  High: Low: Average:
Temperature: 80.7 °F /  27.1 °C 57.5 °F /  14.2 °C 67.4 °F /  19.7 °C
Dew Point: 61.0 °F /  16.1 °C 47.1 °F /  8.4 °C 54.7 °F /  12.6 °C
Humidity: 93 % 34 % 67 %
Wind Speed: 8.6 mph /  13.8 km/h - 1.4 mph /  2.3 km/h
Wind Gust: 13.8 mph /  22.2 km/h - -
Wind:- - SSE
Pressure: 30.04 in /  1017.2 hPa 29.98 in /  1015.1 hPa -
Precipitation: 0.00 in /  0 mm    
Historical Graphs
 
 
Tabular Data for June 15, 2017
Time Temperature Dew Point Pressure Wind Wind Speed Wind Gust Humidity Rainfall Rate (Hourly)
00:04 62.0 °F /  16.7 °C 55.1 °F /  12.8 °C 30.01 in /  1016.1 hPa Calm     78 % 0.00 in /  0 mm
00:09 61.8 °F /  16.6 °C 54.9 °F /  12.7 °C 30.00 in /  1015.8 hPa Calm     78 % 0.00 in /  0 mm
00:14 61.7 °F /  16.5 °C 55.1 °F /  12.8 °C 30.00 in /  1015.8 hPa Calm     79 % 0.00 in /  0 mm
00:19 61.6 °F /  16.4 °C 55.0 °F /  12.8 °C 30.00 in /  1015.8 hPa Calm     79 % 0.00 in /  0 mm
00:24 61.4 °F /  16.3 °C 54.8 °F /  12.7 °C 30.00 in /  1015.8 hPa Calm     79 % 0.00 in /  0 mm
00:29 61.3 °F /  16.3 °C 54.7 °F /  12.6 °C 30.00 in /  1015.8 hPa Calm     79 % 0.00 in /  0 mm
00:34 61.1 °F /  16.2 °C 54.5 °F /  12.5 °C 30.01 in /  1016.1 hPa Calm     79 % 0.00 in /  0 mm
00:39 61.0 °F /  16.1 °C 54.8 °F /  12.7 °C 30.00 in /  1015.8 hPa Calm     80 % 0.00 in /  0 mm
00:44 60.9 °F /  16.1 °C 55.0 °F /  12.8 °C 30.00 in /  1015.8 hPa Calm     81 % 0.00 in /  0 mm
00:49 60.8 °F /  16 °C 54.9 °F /  12.7 °C 30.00 in /  1015.8 hPa Calm   1.2 mph /  1.9 km/h 81 % 0.00 in /  0 mm
00:54 60.7 °F /  15.9 °C 54.8 °F /  12.7 °C 30.00 in /  1015.8 hPa Calm     81 % 0.00 in /  0 mm
00:59 60.6 °F /  15.9 °C 54.7 °F /  12.6 °C 30.00 in /  1015.8 hPa WSW 0.3 mph /  0.5 km/h   81 % 0.00 in /  0 mm
01:04 60.5 °F /  15.8 °C 55.3 °F /  12.9 °C 30.00 in /  1015.8 hPa WSW 0.2 mph /  0.3 km/h 1.2 mph /  1.9 km/h 83 % 0.00 in /  0 mm
01:09 60.5 °F /  15.8 °C 55.3 °F /  12.9 °C 30.00 in /  1015.8 hPa Calm   3.5 mph /  5.6 km/h 83 % 0.00 in /  0 mm
01:10 60.5 °F /  15.8 °C 55.3 °F /  12.9 °C 30.00 in /  1015.8 hPa WSW 0.1 mph /  0.2 km/h 3.5 mph /  5.6 km/h 83 % 0.00 in /  0 mm
01:15 60.5 °F /  15.8 °C 55.3 °F /  12.9 °C 30.00 in /  1015.8 hPa Calm     83 % 0.00 in /  0 mm
01:20 60.5 °F /  15.8 °C 55.3 °F /  12.9 °C 30.00 in /  1015.8 hPa Calm     83 % 0.00 in /  0 mm
01:25 60.5 °F /  15.8 °C 55.3 °F /  12.9 °C 30.00 in /  1015.8 hPa Calm     83 % 0.00 in /  0 mm
01:30 60.5 °F /  15.8 °C 55.3 °F /  12.9 °C 30.01 in /  1016.1 hPa Calm     83 % 0.00 in /  0 mm
01:35 60.5 °F /  15.8 °C 55.3 °F /  12.9 °C 30.00 in /  1015.8 hPa Calm     83 % 0.00 in /  0 mm
01:40 60.5 °F /  15.8 °C 55.3 °F /  12.9 °C 30.00 in /  1015.8 hPa Calm     83 % 0.00 in /  0 mm
01:45 60.4 °F /  15.8 °C 55.2 °F /  12.9 °C 30.00 in /  1015.8 hPa Calm     83 % 0.00 in /  0 mm
01:50 60.4 °F /  15.8 °C 55.5 °F /  13.1 °C 30.00 in /  1015.8 hPa Calm     84 % 0.00 in /  0 mm
01:55 60.3 °F /  15.7 °C 55.4 °F /  13 °C 30.00 in /  1015.8 hPa Calm   1.2 mph /  1.9 km/h 84 % 0.00 in /  0 mm
02:00 60.2 °F /  15.7 °C 55.3 °F /  12.9 °C 30.00 in /  1015.8 hPa Calm     84 % 0.00 in /  0 mm
02:05 60.1 °F /  15.6 °C 55.2 °F /  12.9 °C 30.00 in /  1015.8 hPa Calm   1.2 mph /  1.9 km/h 84 % 0.00 in /  0 mm
02:10 60.0 °F /  15.6 °C 55.5 °F /  13.1 °C 30.00 in /  1015.8 hPa Calm     85 % 0.00 in /  0 mm
02:15 59.9 °F /  15.5 °C 55.4 °F /  13 °C 30.00 in /  1015.8 hPa Calm     85 % 0.00 in /  0 mm
02:20 59.8 °F /  15.4 °C 55.3 °F /  12.9 °C 30.00 in /  1015.8 hPa Calm     85 % 0.00 in /  0 mm
02:25 59.8 °F /  15.4 °C 55.6 °F /  13.1 °C 30.00 in /  1015.8 hPa Calm     86 % 0.00 in /  0 mm
02:30 59.7 °F /  15.4 °C 55.5 °F /  13.1 °C 30.00 in /  1015.8 hPa Calm     86 % 0.00 in /  0 mm
02:35 59.6 °F /  15.3 °C 55.4 °F /  13 °C 30.00 in /  1015.8 hPa Calm     86 % 0.00 in /  0 mm
02:40 59.5 °F /  15.3 °C 55.3 °F /  12.9 °C 30.00 in /  1015.8 hPa Calm     86 % 0.00 in /  0 mm
02:45 59.4 °F /  15.2 °C 55.5 °F /  13.1 °C 30.00 in /  1015.8 hPa Calm   1.2 mph /  1.9 km/h 87 % 0.00 in /  0 mm
02:50 59.4 °F /  15.2 °C 56.2 °F /  13.4 °C 30.00 in /  1015.8 hPa Calm     89 % 0.00 in /  0 mm
02:55 59.4 °F /  15.2 °C 56.2 °F /  13.4 °C 30.00 in /  1015.8 hPa Calm     89 % 0.00 in /  0 mm
03:00 59.3 °F /  15.2 °C 56.1 °F /  13.4 °C 30.00 in /  1015.8 hPa WSW 0.1 mph /  0.2 km/h 1.0 mph /  1.6 km/h 89 % 0.00 in /  0 mm
03:05 59.2 °F /  15.1 °C 56.0 °F /  13.3 °C 30.00 in /  1015.8 hPa Calm   1.2 mph /  1.9 km/h 89 % 0.00 in /  0 mm
03:10 59.2 °F /  15.1 °C 56.0 °F /  13.3 °C 30.00 in /  1015.8 hPa Calm     89 % 0.00 in /  0 mm
03:15 59.2 °F /  15.1 °C 56.0 °F /  13.3 °C 30.00 in /  1015.8 hPa Calm     89 % 0.00 in /  0 mm
03:20 59.1 °F /  15.1 °C 55.9 °F /  13.3 °C 30.00 in /  1015.8 hPa Calm     89 % 0.00 in /  0 mm
03:25 59.1 °F /  15.1 °C 55.9 °F /  13.3 °C 30.01 in /  1016.1 hPa Calm     89 % 0.00 in /  0 mm
03:30 59.1 °F /  15.1 °C 56.2 °F /  13.4 °C 30.00 in /  1015.8 hPa Calm   1.2 mph /  1.9 km/h 90 % 0.00 in /  0 mm
03:35 59.1 °F /  15.1 °C 56.2 °F /  13.4 °C 29.99 in /  1015.5 hPa Calm     90 % 0.00 in /  0 mm
03:40 59.0 °F /  15 °C 56.1 °F /  13.4 °C 29.99 in /  1015.5 hPa Calm     90 % 0.00 in /  0 mm
03:45 59.0 °F /  15 °C 56.1 °F /  13.4 °C 29.99 in /  1015.5 hPa Calm     90 % 0.00 in /  0 mm
03:50 59.0 °F /  15 °C 56.1 °F /  13.4 °C 29.99 in /  1015.5 hPa South 1.3 mph /  2.1 km/h 3.5 mph /  5.6 km/h 90 % 0.00 in /  0 mm
03:55 58.9 °F /  14.9 °C 56.0 °F /  13.3 °C 29.98 in /  1015.1 hPa SSE 1.3 mph /  2.1 km/h 3.0 mph /  4.8 km/h 90 % 0.00 in /  0 mm
04:00 58.9 °F /  14.9 °C 56.0 °F /  13.3 °C 29.99 in /  1015.5 hPa Calm     90 % 0.00 in /  0 mm
04:05 58.8 °F /  14.9 °C 55.9 °F /  13.3 °C 30.00 in /  1015.8 hPa Calm   1.2 mph /  1.9 km/h 90 % 0.00 in /  0 mm
04:10 58.8 °F /  14.9 °C 55.9 °F /  13.3 °C 29.99 in /  1015.5 hPa Calm   1.2 mph /  1.9 km/h 90 % 0.00 in /  0 mm
04:15 58.7 °F /  14.8 °C 55.8 °F /  13.2 °C 29.99 in /  1015.5 hPa Calm   1.0 mph /  1.6 km/h 90 % 0.00 in /  0 mm
04:20 58.7 °F /  14.8 °C 56.1 °F /  13.4 °C 30.00 in /  1015.8 hPa SE 0.1 mph /  0.2 km/h 3.5 mph /  5.6 km/h 91 % 0.00 in /  0 mm
04:25 58.7 °F /  14.8 °C 55.8 °F /  13.2 °C 30.00 in /  1015.8 hPa Calm   2.0 mph /  3.2 km/h 90 % 0.00 in /  0 mm
04:31 58.7 °F /  14.8 °C 55.8 °F /  13.2 °C 29.99 in /  1015.5 hPa Calm     90 % 0.00 in /  0 mm
04:36 58.6 °F /  14.8 °C 55.7 °F /  13.2 °C 29.99 in /  1015.5 hPa Calm   2.3 mph /  3.7 km/h 90 % 0.00 in /  0 mm
04:41 58.6 °F /  14.8 °C 55.7 °F /  13.2 °C 29.99 in /  1015.5 hPa SE 0.2 mph /  0.3 km/h 1.2 mph /  1.9 km/h 90 % 0.00 in /  0 mm
04:46 58.5 °F /  14.7 °C 55.6 °F /  13.1 °C 29.99 in /  1015.5 hPa SE 0.9 mph /  1.4 km/h 3.5 mph /  5.6 km/h 90 % 0.00 in /  0 mm
04:51 58.4 °F /  14.7 °C 55.5 °F /  13.1 °C 29.99 in /  1015.5 hPa Calm     90 % 0.00 in /  0 mm
04:56 58.4 °F /  14.7 °C 55.5 °F /  13.1 °C 30.00 in /  1015.8 hPa Calm     90 % 0.00 in /  0 mm
05:01 58.3 °F /  14.6 °C 55.4 °F /  13 °C 30.00 in /  1015.8 hPa Calm     90 % 0.00 in /  0 mm
05:06 58.2 °F /  14.6 °C 55.3 °F /  12.9 °C 30.00 in /  1015.8 hPa Calm     90 % 0.00 in /  0 mm
05:11 58.2 °F /  14.6 °C 55.3 °F /  12.9 °C 29.99 in /  1015.5 hPa Calm     90 % 0.00 in /  0 mm
05:16 58.1 °F /  14.5 °C 55.2 °F /  12.9 °C 30.00 in /  1015.8 hPa Calm     90 % 0.00 in /  0 mm
05:17 58.1 °F /  14.5 °C 55.2 °F /  12.9 °C 30.00 in /  1015.8 hPa Calm     90 % 0.00 in /  0 mm
05:22 58.0 °F /  14.4 °C 55.1 °F /  12.8 °C 30.00 in /  1015.8 hPa Calm     90 % 0.00 in /  0 mm
05:27 57.9 °F /  14.4 °C 55.0 °F /  12.8 °C 30.00 in /  1015.8 hPa Calm   1.2 mph /  1.9 km/h 90 % 0.00 in /  0 mm
05:29 57.8 °F /  14.3 °C 54.9 °F /  12.7 °C 30.00 in /  1015.8 hPa Calm   1.2 mph /  1.9 km/h 90 % 0.00 in /  0 mm
05:34 57.8 °F /  14.3 °C 54.9 °F /  12.7 °C 30.00 in /  1015.8 hPa Calm     90 % 0.00 in /  0 mm
05:39 57.7 °F /  14.3 °C 54.8 °F /  12.7 °C 30.00 in /  1015.8 hPa Calm     90 % 0.00 in /  0 mm
05:44 57.7 °F /  14.3 °C 54.8 °F /  12.7 °C 30.00 in /  1015.8 hPa Calm     90 % 0.00 in /  0 mm
05:49 57.6 °F /  14.2 °C 55.0 °F /  12.8 °C 30.00 in /  1015.8 hPa Calm     91 % 0.00 in /  0 mm
05:54 57.5 °F /  14.2 °C 54.9 °F /  12.7 °C 30.00 in /  1015.8 hPa Calm     91 % 0.00 in /  0 mm
05:59 57.5 °F /  14.2 °C 54.9 °F /  12.7 °C 30.01 in /  1016.1 hPa Calm   2.3 mph /  3.7 km/h 91 % 0.00 in /  0 mm
06:04 57.5 °F /  14.2 °C 54.9 °F /  12.7 °C 30.01 in /  1016.1 hPa West 0.1 mph /  0.2 km/h 1.2 mph /  1.9 km/h 91 % 0.00 in /  0 mm
06:09 57.5 °F /  14.2 °C 54.9 °F /  12.7 °C 30.01 in /  1016.1 hPa Calm     91 % 0.00 in /  0 mm
06:15 57.5 °F /  14.2 °C 54.9 °F /  12.7 °C 30.00 in /  1015.8 hPa Calm   1.2 mph /  1.9 km/h 91 % 0.00 in /  0 mm
06:20 57.6 °F /  14.2 °C 55.3 °F /  12.9 °C 30.01 in /  1016.1 hPa Calm     92 % 0.00 in /  0 mm
06:25 57.9 °F /  14.4 °C 55.9 °F /  13.3 °C 30.00 in /  1015.8 hPa SSE 1.6 mph /  2.6 km/h 5.0 mph /  8 km/h 93 % 0.00 in /  0 mm
06:30 58.2 °F /  14.6 °C 56.2 °F /  13.4 °C 30.00 in /  1015.8 hPa South 3.6 mph /  5.8 km/h 8.1 mph /  13 km/h 93 % 0.00 in /  0 mm
06:35 58.5 °F /  14.7 °C 56.5 °F /  13.6 °C 30.01 in /  1016.1 hPa SE 2.1 mph /  3.4 km/h 6.0 mph /  9.7 km/h 93 % 0.00 in /  0 mm
06:40 59.0 °F /  15 °C 56.7 °F /  13.7 °C 30.01 in /  1016.1 hPa SE 6.1 mph /  9.8 km/h 10.4 mph /  16.7 km/h 92 % 0.00 in /  0 mm
06:45 59.4 °F /  15.2 °C 56.8 °F /  13.8 °C 30.01 in /  1016.1 hPa SE 4.1 mph /  6.6 km/h 8.1 mph /  13 km/h 91 % 0.00 in /  0 mm
06:50 59.9 °F /  15.5 °C 57.0 °F /  13.9 °C 30.01 in /  1016.1 hPa SE 1.4 mph /  2.3 km/h 3.5 mph /  5.6 km/h 90 % 0.00 in /  0 mm
06:55 60.4 °F /  15.8 °C 57.5 °F /  14.2 °C 30.00 in /  1015.8 hPa SE 1.9 mph /  3.1 km/h 6.9 mph /  11.1 km/h 90 % 0.00 in /  0 mm
07:00 61.1 °F /  16.2 °C 57.5 °F /  14.2 °C 30.01 in /  1016.1 hPa SE 4.8 mph /  7.7 km/h 8.1 mph /  13 km/h 88 % 0.00 in /  0 mm
07:01 61.3 °F /  16.3 °C 57.4 °F /  14.1 °C 30.01 in /  1016.1 hPa SE 3.5 mph /  5.6 km/h 10.0 mph /  16.1 km/h 87 % 0.00 in /  0 mm
07:06 61.9 °F /  16.6 °C 57.7 °F /  14.3 °C 30.01 in /  1016.1 hPa SSE 4.0 mph /  6.4 km/h 7.0 mph /  11.3 km/h 86 % 0.00 in /  0 mm
07:11 62.4 °F /  16.9 °C 57.8 °F /  14.3 °C 30.01 in /  1016.1 hPa SE 4.6 mph /  7.4 km/h 6.9 mph /  11.1 km/h 85 % 0.00 in /  0 mm
07:16 62.8 °F /  17.1 °C 58.2 °F /  14.6 °C 30.02 in /  1016.5 hPa SSE 1.0 mph /  1.6 km/h 5.0 mph /  8 km/h 85 % 0.00 in /  0 mm
07:21 63.3 °F /  17.4 °C 58.0 °F /  14.4 °C 30.01 in /  1016.1 hPa SE 3.6 mph /  5.8 km/h 5.8 mph /  9.3 km/h 83 % 0.00 in /  0 mm
07:26 63.7 °F /  17.6 °C 58.4 °F /  14.7 °C 30.01 in /  1016.1 hPa SE 1.4 mph /  2.3 km/h 4.6 mph /  7.4 km/h 83 % 0.00 in /  0 mm
07:31 64.0 °F /  17.8 °C 58.7 °F /  14.8 °C 30.02 in /  1016.5 hPa SE 1.2 mph /  1.9 km/h 3.5 mph /  5.6 km/h 83 % 0.00 in /  0 mm
07:36 64.2 °F /  17.9 °C 58.6 °F /  14.8 °C 30.02 in /  1016.5 hPa South 0.3 mph /  0.5 km/h 2.3 mph /  3.7 km/h 82 % 0.00 in /  0 mm
07:42 64.3 °F /  17.9 °C 58.3 °F /  14.6 °C 30.02 in /  1016.5 hPa SSE 1.2 mph /  1.9 km/h 3.5 mph /  5.6 km/h 81 % 0.00 in /  0 mm
07:47 64.4 °F /  18 °C 58.8 °F /  14.9 °C 30.02 in /  1016.5 hPa SE 2.3 mph /  3.7 km/h 4.0 mph /  6.4 km/h 82 % 0.00 in /  0 mm
07:52 64.7 °F /  18.2 °C 58.7 °F /  14.8 °C 30.02 in /  1016.5 hPa Calm   4.6 mph /  7.4 km/h 81 % 0.00 in /  0 mm
07:57 65.1 °F /  18.4 °C 59.8 °F /  15.4 °C 30.02 in /  1016.5 hPa SE 1.9 mph /  3.1 km/h 4.6 mph /  7.4 km/h 83 % 0.00 in /  0 mm
08:02 65.3 °F /  18.5 °C 59.0 °F /  15 °C 30.02 in /  1016.5 hPa SE 2.2 mph /  3.5 km/h 6.0 mph /  9.7 km/h 80 % 0.00 in /  0 mm
08:07 65.4 °F /  18.6 °C 59.4 °F /  15.2 °C 30.03 in /  1016.8 hPa SSE 0.1 mph /  0.2 km/h 2.3 mph /  3.7 km/h 81 % 0.00 in /  0 mm
08:12 65.7 °F /  18.7 °C 59.7 °F /  15.4 °C 30.03 in /  1016.8 hPa SSE 0.2 mph /  0.3 km/h 2.3 mph /  3.7 km/h 81 % 0.00 in /  0 mm
08:17 65.9 °F /  18.8 °C 59.9 °F /  15.5 °C 30.03 in /  1016.8 hPa SSE 0.1 mph /  0.2 km/h 2.3 mph /  3.7 km/h 81 % 0.00 in /  0 mm
08:22 66.2 °F /  19 °C 60.2 °F /  15.7 °C 30.03 in /  1016.8 hPa Calm   1.2 mph /  1.9 km/h 81 % 0.00 in /  0 mm
08:27 66.5 °F /  19.2 °C 60.5 °F /  15.8 °C 30.03 in /  1016.8 hPa SSE 2.1 mph /  3.4 km/h 4.0 mph /  6.4 km/h 81 % 0.00 in /  0 mm
08:32 66.8 °F /  19.3 °C 60.1 °F /  15.6 °C 30.03 in /  1016.8 hPa SE 2.4 mph /  3.9 km/h 4.6 mph /  7.4 km/h 79 % 0.00 in /  0 mm
08:37 67.2 °F /  19.6 °C 60.5 °F /  15.8 °C 30.03 in /  1016.8 hPa SE 1.4 mph /  2.3 km/h 3.0 mph /  4.8 km/h 79 % 0.00 in /  0 mm
08:42 67.5 °F /  19.7 °C 59.7 °F /  15.4 °C 30.03 in /  1016.8 hPa SE 1.3 mph /  2.1 km/h 3.5 mph /  5.6 km/h 76 % 0.00 in /  0 mm
08:47 67.7 °F /  19.8 °C 59.1 °F /  15.1 °C 30.03 in /  1016.8 hPa ESE 1.0 mph /  1.6 km/h 6.9 mph /  11.1 km/h 74 % 0.00 in /  0 mm
08:52 67.9 °F /  19.9 °C 59.7 °F /  15.4 °C 30.03 in /  1016.8 hPa SE 0.1 mph /  0.2 km/h 2.0 mph /  3.2 km/h 75 % 0.00 in /  0 mm
08:57 68.1 °F /  20.1 °C 59.9 °F /  15.5 °C 30.03 in /  1016.8 hPa SE 0.1 mph /  0.2 km/h 1.2 mph /  1.9 km/h 75 % 0.00 in /  0 mm
09:02 68.5 °F /  20.3 °C 61.0 °F /  16.1 °C 30.04 in /  1017.2 hPa ESE 0.5 mph /  0.8 km/h 2.3 mph /  3.7 km/h 77 % 0.00 in /  0 mm
09:07 68.7 °F /  20.4 °C 59.3 °F /  15.2 °C 30.04 in /  1017.2 hPa Calm   3.5 mph /  5.6 km/h 72 % 0.00 in /  0 mm
09:12 69.0 °F /  20.6 °C 60.0 °F /  15.6 °C 30.04 in /  1017.2 hPa SE 0.6 mph /  1 km/h 2.0 mph /  3.2 km/h 73 % 0.00 in /  0 mm
09:17 69.2 °F /  20.7 °C 60.2 °F /  15.7 °C 30.04 in /  1017.2 hPa SE 0.5 mph /  0.8 km/h 1.2 mph /  1.9 km/h 73 % 0.00 in /  0 mm
09:22 69.5 °F /  20.8 °C 59.3 °F /  15.2 °C 30.03 in /  1016.8 hPa SE 0.1 mph /  0.2 km/h 1.2 mph /  1.9 km/h 70 % 0.00 in /  0 mm
09:27 69.9 °F /  21.1 °C 59.7 °F /  15.4 °C 30.03 in /  1016.8 hPa SE 1.2 mph /  1.9 km/h 4.6 mph /  7.4 km/h 70 % 0.00 in /  0 mm
09:32 70.0 °F /  21.1 °C 59.0 °F /  15 °C 30.04 in /  1017.2 hPa SE 1.2 mph /  1.9 km/h 3.5 mph /  5.6 km/h 68 % 0.00 in /  0 mm
09:34 70.1 °F /  21.2 °C 59.0 °F /  15 °C 30.03 in /  1016.8 hPa SE 2.1 mph /  3.4 km/h 3.5 mph /  5.6 km/h 68 % 0.00 in /  0 mm
09:39 70.2 °F /  21.2 °C 59.6 °F /  15.3 °C 30.04 in /  1017.2 hPa SE 0.1 mph /  0.2 km/h 1.2 mph /  1.9 km/h 69 % 0.00 in /  0 mm
09:44 70.5 °F /  21.4 °C 59.4 °F /  15.2 °C 30.03 in /  1016.8 hPa SE 1.1 mph /  1.8 km/h 3.0 mph /  4.8 km/h 68 % 0.00 in /  0 mm
09:49 71.0 °F /  21.7 °C 59.1 °F /  15.1 °C 30.03 in /  1016.8 hPa East 0.6 mph /  1 km/h 3.5 mph /  5.6 km/h 66 % 0.00 in /  0 mm
09:54 71.5 °F /  21.9 °C 56.9 °F /  13.8 °C 30.03 in /  1016.8 hPa SE 3.6 mph /  5.8 km/h 5.8 mph /  9.3 km/h 60 % 0.00 in /  0 mm
09:59 72.0 °F /  22.2 °C 59.6 °F /  15.3 °C 30.03 in /  1016.8 hPa SE 0.1 mph /  0.2 km/h 3.5 mph /  5.6 km/h 65 % 0.00 in /  0 mm
10:04 72.5 °F /  22.5 °C 57.8 °F /  14.3 °C 30.04 in /  1017.2 hPa SW 1.0 mph /  1.6 km/h 3.5 mph /  5.6 km/h 60 % 0.00 in /  0 mm
10:09 73.1 °F /  22.8 °C 57.0 °F /  13.9 °C 30.03 in /  1016.8 hPa SSW 0.8 mph /  1.3 km/h 1.2 mph /  1.9 km/h 57 % 0.00 in /  0 mm
10:14 73.6 °F /  23.1 °C 53.3 °F /  11.8 °C 30.04 in /  1017.2 hPa SE 0.8 mph /  1.3 km/h 9.2 mph /  14.8 km/h 49 % 0.00 in /  0 mm
10:19 74.1 °F /  23.4 °C 55.9 °F /  13.3 °C 30.04 in /  1017.2 hPa SE 0.4 mph /  0.6 km/h 5.8 mph /  9.3 km/h 53 % 0.00 in /  0 mm
10:24 74.3 °F /  23.5 °C 56.6 °F /  13.7 °C 30.04 in /  1017.2 hPa SE 0.2 mph /  0.3 km/h 1.2 mph /  1.9 km/h 54 % 0.00 in /  0 mm
10:29 74.6 °F /  23.7 °C 57.4 °F /  14.1 °C 30.04 in /  1017.2 hPa SSE 0.3 mph /  0.5 km/h 2.3 mph /  3.7 km/h 55 % 0.00 in /  0 mm
10:35 74.8 °F /  23.8 °C 56.0 °F /  13.3 °C 30.04 in /  1017.2 hPa SSE 0.5 mph /  0.8 km/h 1.0 mph /  1.6 km/h 52 % 0.00 in /  0 mm
10:40 74.9 °F /  23.8 °C 53.3 °F /  11.8 °C 30.04 in /  1017.2 hPa SE 3.3 mph /  5.3 km/h 3.5 mph /  5.6 km/h 47 % 0.00 in /  0 mm
10:45 74.8 °F /  23.8 °C 53.2 °F /  11.8 °C 30.04 in /  1017.2 hPa SE 3.9 mph /  6.3 km/h 5.8 mph /  9.3 km/h 47 % 0.00 in /  0 mm
10:50 74.7 °F /  23.7 °C 52.5 °F /  11.4 °C 30.04 in /  1017.2 hPa SSE 0.7 mph /  1.1 km/h 2.3 mph /  3.7 km/h 46 % 0.00 in /  0 mm
10:55 74.5 °F /  23.6 °C 51.8 °F /  11 °C 30.04 in /  1017.2 hPa SE 0.5 mph /  0.8 km/h 5.8 mph /  9.3 km/h 45 % 0.00 in /  0 mm
11:00 74.2 °F /  23.4 °C 52.7 °F /  11.5 °C 30.04 in /  1017.2 hPa SE 1.7 mph /  2.7 km/h 9.2 mph /  14.8 km/h 47 % 0.00 in /  0 mm
11:05 74.3 °F /  23.5 °C 53.3 °F /  11.8 °C 30.04 in /  1017.2 hPa WSW 0.2 mph /  0.3 km/h 3.5 mph /  5.6 km/h 48 % 0.00 in /  0 mm
11:10 74.8 °F /  23.8 °C 54.4 °F /  12.4 °C 30.04 in /  1017.2 hPa SSW 2.0 mph /  3.2 km/h 3.5 mph /  5.6 km/h 49 % 0.00 in /  0 mm
11:15 75.3 °F /  24.1 °C 54.8 °F /  12.7 °C 30.04 in /  1017.2 hPa SW 0.3 mph /  0.5 km/h 4.6 mph /  7.4 km/h 49 % 0.00 in /  0 mm
11:20 75.8 °F /  24.3 °C 54.7 °F /  12.6 °C 30.04 in /  1017.2 hPa SW 2.6 mph /  4.2 km/h 5.8 mph /  9.3 km/h 48 % 0.00 in /  0 mm
11:25 76.3 °F /  24.6 °C 52.2 °F /  11.2 °C 30.04 in /  1017.2 hPa SE 2.3 mph /  3.7 km/h 4.6 mph /  7.4 km/h 43 % 0.00 in /  0 mm
11:30 77.0 °F /  25 °C 54.6 °F /  12.6 °C 30.04 in /  1017.2 hPa SSE 1.8 mph /  2.9 km/h 4.6 mph /  7.4 km/h 46 % 0.00 in /  0 mm
11:35 77.6 °F /  25.3 °C 54.6 °F /  12.6 °C 30.04 in /  1017.2 hPa SW 1.6 mph /  2.6 km/h 4.0 mph /  6.4 km/h 45 % 0.00 in /  0 mm
11:40 77.8 °F /  25.4 °C 51.5 °F /  10.8 °C 30.03 in /  1016.8 hPa SE 2.0 mph /  3.2 km/h 5.8 mph /  9.3 km/h 40 % 0.00 in /  0 mm
11:45 77.5 °F /  25.3 °C 55.1 °F /  12.8 °C 30.03 in /  1016.8 hPa SE 0.9 mph /  1.4 km/h 3.5 mph /  5.6 km/h 46 % 0.00 in /  0 mm
11:50 77.3 °F /  25.2 °C 50.4 °F /  10.2 °C 30.03 in /  1016.8 hPa SSE 5.3 mph /  8.5 km/h 9.0 mph /  14.5 km/h 39 % 0.00 in /  0 mm
11:55 76.8 °F /  24.9 °C 51.3 °F /  10.7 °C 30.03 in /  1016.8 hPa SSW 4.0 mph /  6.4 km/h 6.9 mph /  11.1 km/h 41 % 0.00 in /  0 mm
12:00 76.5 °F /  24.7 °C 49.7 °F /  9.8 °C 30.03 in /  1016.8 hPa South 1.8 mph /  2.9 km/h 4.6 mph /  7.4 km/h 39 % 0.00 in /  0 mm
12:02 76.4 °F /  24.7 °C 51.6 °F /  10.9 °C 30.03 in /  1016.8 hPa WSW 1.0 mph /  1.6 km/h 3.5 mph /  5.6 km/h 42 % 0.00 in /  0 mm
12:07 76.5 °F /  24.7 °C 50.4 °F /  10.2 °C 30.03 in /  1016.8 hPa SSE 2.0 mph /  3.2 km/h 6.9 mph /  11.1 km/h 40 % 0.00 in /  0 mm
12:12 76.5 °F /  24.7 °C 50.4 °F /  10.2 °C 30.04 in /  1017.2 hPa ESE 0.7 mph /  1.1 km/h 4.6 mph /  7.4 km/h 40 % 0.00 in /  0 mm
12:17 76.7 °F /  24.8 °C 55.0 °F /  12.8 °C 30.03 in /  1016.8 hPa SSW 1.6 mph /  2.6 km/h 3.5 mph /  5.6 km/h 47 % 0.00 in /  0 mm
12:22 77.1 °F /  25.1 °C 51.6 °F /  10.9 °C 30.03 in /  1016.8 hPa SSE 2.8 mph /  4.5 km/h 6.0 mph /  9.7 km/h 41 % 0.00 in /  0 mm
12:27 77.2 °F /  25.1 °C 49.6 °F /  9.8 °C 30.03 in /  1016.8 hPa SSW 4.2 mph /  6.8 km/h 5.8 mph /  9.3 km/h 38 % 0.00 in /  0 mm
12:32 77.1 °F /  25.1 °C 50.9 °F /  10.5 °C 30.03 in /  1016.8 hPa SSW 1.2 mph /  1.9 km/h 3.5 mph /  5.6 km/h 40 % 0.00 in /  0 mm
12:37 77.0 °F /  25 °C 51.5 °F /  10.8 °C 30.03 in /  1016.8 hPa SW 2.0 mph /  3.2 km/h 4.6 mph /  7.4 km/h 41 % 0.00 in /  0 mm
12:42 76.6 °F /  24.8 °C 51.8 °F /  11 °C 30.03 in /  1016.8 hPa SE 1.9 mph /  3.1 km/h 7.0 mph /  11.3 km/h 42 % 0.00 in /  0 mm
12:47 76.9 °F /  24.9 °C 50.1 °F /  10.1 °C 30.03 in /  1016.8 hPa SSE 4.4 mph /  7.1 km/h 10.4 mph /  16.7 km/h 39 % 0.00 in /  0 mm
12:52 77.2 °F /  25.1 °C 53.6 °F /  12 °C 30.03 in /  1016.8 hPa SW 3.2 mph /  5.1 km/h 4.6 mph /  7.4 km/h 44 % 0.00 in /  0 mm
12:57 77.7 °F /  25.4 °C 51.5 °F /  10.8 °C 30.02 in /  1016.5 hPa SE 0.5 mph /  0.8 km/h 3.5 mph /  5.6 km/h 40 % 0.00 in /  0 mm
13:02 78.6 °F /  25.9 °C 52.3 °F /  11.3 °C 30.02 in /  1016.5 hPa SSW 3.4 mph /  5.5 km/h 5.8 mph /  9.3 km/h 40 % 0.00 in /  0 mm
13:07 79.0 °F /  26.1 °C 51.9 °F /  11.1 °C 30.02 in /  1016.5 hPa SE 0.5 mph /  0.8 km/h 6.9 mph /  11.1 km/h 39 % 0.00 in /  0 mm
13:12 79.0 °F /  26.1 °C 51.9 °F /  11.1 °C 30.02 in /  1016.5 hPa SSW 2.8 mph /  4.5 km/h 5.8 mph /  9.3 km/h 39 % 0.00 in /  0 mm
13:17 79.4 °F /  26.3 °C 50.9 °F /  10.5 °C 30.02 in /  1016.5 hPa SW 2.1 mph /  3.4 km/h 3.5 mph /  5.6 km/h 37 % 0.00 in /  0 mm
13:22 79.6 °F /  26.4 °C 50.3 °F /  10.2 °C 30.02 in /  1016.5 hPa South 2.1 mph /  3.4 km/h 6.9 mph /  11.1 km/h 36 % 0.00 in /  0 mm
13:27 79.5 °F /  26.4 °C 49.4 °F /  9.7 °C 30.02 in /  1016.5 hPa SW 0.6 mph /  1 km/h 3.5 mph /  5.6 km/h 35 % 0.00 in /  0 mm
13:32 79.8 °F /  26.6 °C 52.6 °F /  11.4 °C 30.02 in /  1016.5 hPa SSW 1.4 mph /  2.3 km/h 4.0 mph /  6.4 km/h 39 % 0.00 in /  0 mm
13:37 80.3 °F /  26.8 °C 55.1 °F /  12.8 °C 30.02 in /  1016.5 hPa SW 0.8 mph /  1.3 km/h 3.5 mph /  5.6 km/h 42 % 0.00 in /  0 mm
13:42 80.5 °F /  26.9 °C 52.6 °F /  11.4 °C 30.02 in /  1016.5 hPa SSW 2.4 mph /  3.9 km/h 8.1 mph /  13 km/h 38 % 0.00 in /  0 mm
13:47 80.7 °F /  27.1 °C 49.7 °F /  9.8 °C 30.02 in /  1016.5 hPa SSW 4.2 mph /  6.8 km/h 5.0 mph /  8 km/h 34 % 0.00 in /  0 mm
13:52 80.4 °F /  26.9 °C 50.2 °F /  10.1 °C 30.02 in /  1016.5 hPa SE 3.0 mph /  4.8 km/h 6.9 mph /  11.1 km/h 35 % 0.00 in /  0 mm
13:57 79.8 °F /  26.6 °C 52.6 °F /  11.4 °C 30.02 in /  1016.5 hPa SE 2.2 mph /  3.5 km/h 4.6 mph /  7.4 km/h 39 % 0.00 in /  0 mm
14:08 78.7 °F /  25.9 °C 50.2 °F /  10.1 °C 30.01 in /  1016.1 hPa South 2.4 mph /  3.9 km/h 3.5 mph /  5.6 km/h 37 % 0.00 in /  0 mm
14:13 78.0 °F /  25.6 °C 48.9 °F /  9.4 °C 30.01 in /  1016.1 hPa SE 3.4 mph /  5.5 km/h 11.5 mph /  18.5 km/h 36 % 0.00 in /  0 mm
14:18 77.9 °F /  25.5 °C 54.8 °F /  12.7 °C 30.01 in /  1016.1 hPa SE 0.8 mph /  1.3 km/h 2.3 mph /  3.7 km/h 45 % 0.00 in /  0 mm
14:23 78.2 °F /  25.7 °C 53.9 °F /  12.2 °C 30.01 in /  1016.1 hPa SE 0.7 mph /  1.1 km/h 2.3 mph /  3.7 km/h 43 % 0.00 in /  0 mm
14:28 78.4 °F /  25.8 °C 53.4 °F /  11.9 °C 30.01 in /  1016.1 hPa SSW 1.0 mph /  1.6 km/h 3.5 mph /  5.6 km/h 42 % 0.00 in /  0 mm
14:33 78.5 °F /  25.8 °C 51.5 °F /  10.8 °C 30.01 in /  1016.1 hPa SW 2.6 mph /  4.2 km/h 6.9 mph /  11.1 km/h 39 % 0.00 in /  0 mm
14:38 78.5 °F /  25.8 °C 51.5 °F /  10.8 °C 30.01 in /  1016.1 hPa SE 0.6 mph /  1 km/h 4.6 mph /  7.4 km/h 39 % 0.00 in /  0 mm
14:43 78.8 °F /  26 °C 48.8 °F /  9.3 °C 30.02 in /  1016.5 hPa SSW 3.5 mph /  5.6 km/h 8.1 mph /  13 km/h 35 % 0.00 in /  0 mm
14:48 78.4 °F /  25.8 °C 48.5 °F /  9.2 °C 30.01 in /  1016.1 hPa SSW 2.4 mph /  3.9 km/h 8.1 mph /  13 km/h 35 % 0.00 in /  0 mm
14:53 77.7 °F /  25.4 °C 47.1 °F /  8.4 °C 30.01 in /  1016.1 hPa SSE 8.6 mph /  13.8 km/h 12.7 mph /  20.4 km/h 34 % 0.00 in /  0 mm
14:58 76.8 °F /  24.9 °C 47.1 °F /  8.4 °C 30.01 in /  1016.1 hPa SE 0.4 mph /  0.6 km/h 3.5 mph /  5.6 km/h 35 % 0.00 in /  0 mm
15:03 76.8 °F /  24.9 °C 48.6 °F /  9.2 °C 30.01 in /  1016.1 hPa SE 2.5 mph /  4 km/h 11.0 mph /  17.7 km/h 37 % 0.00 in /  0 mm
15:08 76.5 °F /  24.7 °C 49.0 °F /  9.4 °C 30.00 in /  1015.8 hPa SSW 1.1 mph /  1.8 km/h 11.5 mph /  18.5 km/h 38 % 0.00 in /  0 mm
15:13 76.3 °F /  24.6 °C 48.8 °F /  9.3 °C 30.00 in /  1015.8 hPa SE 1.1 mph /  1.8 km/h 4.6 mph /  7.4 km/h 38 % 0.00 in /  0 mm
15:18 76.1 °F /  24.5 °C 47.9 °F /  8.8 °C 30.00 in /  1015.8 hPa SSE 4.6 mph /  7.4 km/h 10.4 mph /  16.7 km/h 37 % 0.00 in /  0 mm
15:23 76.1 °F /  24.5 °C 49.3 °F /  9.6 °C 30.00 in /  1015.8 hPa SSE 0.6 mph /  1 km/h 3.5 mph /  5.6 km/h 39 % 0.00 in /  0 mm
15:28 76.2 °F /  24.6 °C 50.1 °F /  10.1 °C 30.00 in /  1015.8 hPa Calm   2.3 mph /  3.7 km/h 40 % 0.00 in /  0 mm
15:33 76.3 °F /  24.6 °C 48.8 °F /  9.3 °C 30.00 in /  1015.8 hPa South 2.4 mph /  3.9 km/h 5.8 mph /  9.3 km/h 38 % 0.00 in /  0 mm
15:38 76.5 °F /  24.7 °C 49.0 °F /  9.4 °C 30.00 in /  1015.8 hPa SSE 1.3 mph /  2.1 km/h 3.5 mph /  5.6 km/h 38 % 0.00 in /  0 mm
15:43 76.8 °F /  24.9 °C 51.3 °F /  10.7 °C 30.00 in /  1015.8 hPa SE 0.7 mph /  1.1 km/h 4.6 mph /  7.4 km/h 41 % 0.00 in /  0 mm
15:48 77.1 °F /  25.1 °C 50.2 °F /  10.1 °C 30.00 in /  1015.8 hPa SE 1.4 mph /  2.3 km/h 3.5 mph /  5.6 km/h 39 % 0.00 in /  0 mm
15:53 76.9 °F /  24.9 °C 51.4 °F /  10.8 °C 30.00 in /  1015.8 hPa SE 4.7 mph /  7.6 km/h 13.8 mph /  22.2 km/h 41 % 0.00 in /  0 mm
15:58 76.6 °F /  24.8 °C 49.8 °F /  9.9 °C 30.01 in /  1016.1 hPa SE 0.6 mph /  1 km/h 3.5 mph /  5.6 km/h 39 % 0.00 in /  0 mm
16:03 76.2 °F /  24.6 °C 50.1 °F /  10.1 °C 30.01 in /  1016.1 hPa SSE 5.2 mph /  8.4 km/h 11.5 mph /  18.5 km/h 40 % 0.00 in /  0 mm
16:08 75.7 °F /  24.3 °C 49.7 °F /  9.8 °C 30.00 in /  1015.8 hPa SE 7.2 mph /  11.6 km/h 10.4 mph /  16.7 km/h 40 % 0.00 in /  0 mm
16:13 75.3 °F /  24.1 °C 51.3 °F /  10.7 °C 30.00 in /  1015.8 hPa SSE 0.6 mph /  1 km/h 6.9 mph /  11.1 km/h 43 % 0.00 in /  0 mm
16:18 75.3 °F /  24.1 °C 50.6 °F /  10.3 °C 30.00 in /  1015.8 hPa SSE 0.7 mph /  1.1 km/h 3.5 mph /  5.6 km/h 42 % 0.00 in /  0 mm
16:23 75.4 °F /  24.1 °C 50.7 °F /  10.4 °C 30.00 in /  1015.8 hPa SW 2.2 mph /  3.5 km/h 5.0 mph /  8 km/h 42 % 0.00 in /  0 mm
16:28 75.7 °F /  24.3 °C 52.2 °F /  11.2 °C 30.00 in /  1015.8 hPa SSE 2.4 mph /  3.9 km/h 4.6 mph /  7.4 km/h 44 % 0.00 in /  0 mm
16:33 75.5 °F /  24.2 °C 50.8 °F /  10.4 °C 30.00 in /  1015.8 hPa SSE 4.6 mph /  7.4 km/h 10.4 mph /  16.7 km/h 42 % 0.00 in /  0 mm
16:38 75.4 °F /  24.1 °C 53.8 °F /  12.1 °C 30.00 in /  1015.8 hPa SE 2.1 mph /  3.4 km/h 5.8 mph /  9.3 km/h 47 % 0.00 in /  0 mm
16:43 75.1 °F /  23.9 °C 50.4 °F /  10.2 °C 30.00 in /  1015.8 hPa SSE 6.1 mph /  9.8 km/h 11.5 mph /  18.5 km/h 42 % 0.00 in /  0 mm
16:48 74.9 °F /  23.8 °C 50.3 °F /  10.2 °C 30.00 in /  1015.8 hPa SSW 4.1 mph /  6.6 km/h 6.9 mph /  11.1 km/h 42 % 0.00 in /  0 mm
16:53 74.7 °F /  23.7 °C 50.7 °F /  10.4 °C 30.00 in /  1015.8 hPa South 0.9 mph /  1.4 km/h 3.5 mph /  5.6 km/h 43 % 0.00 in /  0 mm
16:59 74.5 °F /  23.6 °C 50.5 °F /  10.3 °C 30.00 in /  1015.8 hPa SSE 0.9 mph /  1.4 km/h 3.5 mph /  5.6 km/h 43 % 0.00 in /  0 mm
17:04 74.4 °F /  23.6 °C 51.1 °F /  10.6 °C 30.00 in /  1015.8 hPa SSE 2.6 mph /  4.2 km/h 5.8 mph /  9.3 km/h 44 % 0.00 in /  0 mm
17:09 74.2 °F /  23.4 °C 51.5 °F /  10.8 °C 30.00 in /  1015.8 hPa South 0.4 mph /  0.6 km/h 3.5 mph /  5.6 km/h 45 % 0.00 in /  0 mm
17:14 74.1 °F /  23.4 °C 52.0 °F /  11.1 °C 30.00 in /  1015.8 hPa SSE 0.3 mph /  0.5 km/h 1.2 mph /  1.9 km/h 46 % 0.00 in /  0 mm
17:19 73.9 °F /  23.3 °C 51.2 °F /  10.7 °C 30.00 in /  1015.8 hPa SE 4.5 mph /  7.2 km/h 8.0 mph /  12.9 km/h 45 % 0.00 in /  0 mm
17:24 73.1 °F /  22.8 °C 50.5 °F /  10.3 °C 30.00 in /  1015.8 hPa SE 3.3 mph /  5.3 km/h 11.5 mph /  18.5 km/h 45 % 0.00 in /  0 mm
17:29 72.6 °F /  22.6 °C 51.2 °F /  10.7 °C 29.99 in /  1015.5 hPa SE 4.5 mph /  7.2 km/h 7.0 mph /  11.3 km/h 47 % 0.00 in /  0 mm
17:34 72.2 °F /  22.3 °C 50.8 °F /  10.4 °C 30.00 in /  1015.8 hPa SSE 8.2 mph /  13.2 km/h 11.5 mph /  18.5 km/h 47 % 0.00 in /  0 mm
17:39 71.8 °F /  22.1 °C 51.6 °F /  10.9 °C 30.00 in /  1015.8 hPa SSE 0.7 mph /  1.1 km/h 2.3 mph /  3.7 km/h 49 % 0.00 in /  0 mm
17:44 71.8 °F /  22.1 °C 52.7 °F /  11.5 °C 30.00 in /  1015.8 hPa ESE 3.8 mph /  6.1 km/h 9.0 mph /  14.5 km/h 51 % 0.00 in /  0 mm
17:49 71.6 °F /  22 °C 51.4 °F /  10.8 °C 30.00 in /  1015.8 hPa SSW 3.2 mph /  5.1 km/h 5.0 mph /  8 km/h 49 % 0.00 in /  0 mm
17:54 71.4 °F /  21.9 °C 51.8 °F /  11 °C 29.99 in /  1015.5 hPa South 1.3 mph /  2.1 km/h 5.8 mph /  9.3 km/h 50 % 0.00 in /  0 mm
17:59 71.3 °F /  21.8 °C 52.2 °F /  11.2 °C 29.99 in /  1015.5 hPa SSE 0.2 mph /  0.3 km/h 1.2 mph /  1.9 km/h 51 % 0.00 in /  0 mm
18:04 71.1 °F /  21.7 °C 52.0 °F /  11.1 °C 29.99 in /  1015.5 hPa SE 1.2 mph /  1.9 km/h 6.0 mph /  9.7 km/h 51 % 0.00 in /  0 mm
18:09 70.9 °F /  21.6 °C 52.9 °F /  11.6 °C 29.99 in /  1015.5 hPa SW 0.6 mph /  1 km/h 2.3 mph /  3.7 km/h 53 % 0.00 in /  0 mm
18:14 70.7 °F /  21.5 °C 52.7 °F /  11.5 °C 29.99 in /  1015.5 hPa SE 0.8 mph /  1.3 km/h 2.0 mph /  3.2 km/h 53 % 0.00 in /  0 mm
18:19 70.5 °F /  21.4 °C 53.1 °F /  11.7 °C 29.99 in /  1015.5 hPa SSE 2.2 mph /  3.5 km/h 3.0 mph /  4.8 km/h 54 % 0.00 in /  0 mm
18:24 70.2 °F /  21.2 °C 52.8 °F /  11.6 °C 29.98 in /  1015.1 hPa SSE 0.7 mph /  1.1 km/h 4.6 mph /  7.4 km/h 54 % 0.00 in /  0 mm
18:29 70.0 °F /  21.1 °C 53.1 °F /  11.7 °C 29.98 in /  1015.1 hPa SE 3.3 mph /  5.3 km/h 12.0 mph /  19.3 km/h 55 % 0.00 in /  0 mm
18:34 69.8 °F /  21 °C 52.9 °F /  11.6 °C 29.98 in /  1015.1 hPa SE 3.3 mph /  5.3 km/h 9.2 mph /  14.8 km/h 55 % 0.00 in /  0 mm
18:39 69.5 °F /  20.8 °C 53.1 °F /  11.7 °C 29.99 in /  1015.5 hPa SE 5.3 mph /  8.5 km/h 9.2 mph /  14.8 km/h 56 % 0.00 in /  0 mm
18:44 69.3 °F /  20.7 °C 53.4 °F /  11.9 °C 29.98 in /  1015.1 hPa SSE 2.8 mph /  4.5 km/h 6.9 mph /  11.1 km/h 57 % 0.00 in /  0 mm
18:50 69.0 °F /  20.6 °C 53.1 °F /  11.7 °C 29.98 in /  1015.1 hPa SSE 3.9 mph /  6.3 km/h 9.2 mph /  14.8 km/h 57 % 0.00 in /  0 mm
18:55 68.9 °F /  20.5 °C 53.5 °F /  11.9 °C 29.99 in /  1015.5 hPa SSE 2.4 mph /  3.9 km/h 5.8 mph /  9.3 km/h 58 % 0.00 in /  0 mm
19:00 68.7 °F /  20.4 °C 53.8 °F /  12.1 °C 29.99 in /  1015.5 hPa ESE 4.6 mph /  7.4 km/h 9.2 mph /  14.8 km/h 59 % 0.00 in /  0 mm
19:05 68.5 °F /  20.3 °C 54.1 °F /  12.3 °C 29.99 in /  1015.5 hPa South 2.6 mph /  4.2 km/h 5.8 mph /  9.3 km/h 60 % 0.00 in /  0 mm
19:10 68.3 °F /  20.2 °C 54.3 °F /  12.4 °C 29.99 in /  1015.5 hPa SSE 4.5 mph /  7.2 km/h 10.4 mph /  16.7 km/h 61 % 0.00 in /  0 mm
19:15 68.2 °F /  20.1 °C 54.7 °F /  12.6 °C 29.99 in /  1015.5 hPa SE 3.3 mph /  5.3 km/h 11.5 mph /  18.5 km/h 62 % 0.00 in /  0 mm
19:20 68.1 °F /  20.1 °C 54.6 °F /  12.6 °C 29.99 in /  1015.5 hPa SE 3.4 mph /  5.5 km/h 6.9 mph /  11.1 km/h 62 % 0.00 in /  0 mm
19:25 67.9 °F /  19.9 °C 54.4 °F /  12.4 °C 29.99 in /  1015.5 hPa SE 4.1 mph /  6.6 km/h 6.9 mph /  11.1 km/h 62 % 0.00 in /  0 mm
19:30 67.7 °F /  19.8 °C 55.1 °F /  12.8 °C 29.99 in /  1015.5 hPa SE 1.4 mph /  2.3 km/h 2.3 mph /  3.7 km/h 64 % 0.00 in /  0 mm
19:35 67.6 °F /  19.8 °C 55.0 °F /  12.8 °C 29.99 in /  1015.5 hPa South 0.5 mph /  0.8 km/h 2.3 mph /  3.7 km/h 64 % 0.00 in /  0 mm
19:40 67.5 °F /  19.7 °C 54.9 °F /  12.7 °C 30.00 in /  1015.8 hPa SE 1.6 mph /  2.6 km/h 5.8 mph /  9.3 km/h 64 % 0.00 in /  0 mm
19:45 67.4 °F /  19.7 °C 54.8 °F /  12.7 °C 30.00 in /  1015.8 hPa SE 2.6 mph /  4.2 km/h 6.0 mph /  9.7 km/h 64 % 0.00 in /  0 mm
19:50 67.2 °F /  19.6 °C 54.6 °F /  12.6 °C 30.00 in /  1015.8 hPa SE 0.9 mph /  1.4 km/h 3.5 mph /  5.6 km/h 64 % 0.00 in /  0 mm
19:55 67.1 °F /  19.5 °C 54.9 °F /  12.7 °C 30.00 in /  1015.8 hPa SE 2.2 mph /  3.5 km/h 6.9 mph /  11.1 km/h 65 % 0.00 in /  0 mm
20:00 67.0 °F /  19.4 °C 54.8 °F /  12.7 °C 29.99 in /  1015.5 hPa SE 4.1 mph /  6.6 km/h 5.8 mph /  9.3 km/h 65 % 0.00 in /  0 mm
20:05 66.8 °F /  19.3 °C 54.7 °F /  12.6 °C 30.00 in /  1015.8 hPa SSE 1.5 mph /  2.4 km/h 4.6 mph /  7.4 km/h 65 % 0.00 in /  0 mm
20:06 66.8 °F /  19.3 °C 54.7 °F /  12.6 °C 30.00 in /  1015.8 hPa SSE 0.4 mph /  0.6 km/h 2.3 mph /  3.7 km/h 65 % 0.00 in /  0 mm
20:11 66.6 °F /  19.2 °C 54.5 °F /  12.5 °C 30.00 in /  1015.8 hPa SE 2.1 mph /  3.4 km/h 4.6 mph /  7.4 km/h 65 % 0.00 in /  0 mm
20:16 66.5 °F /  19.2 °C 54.4 °F /  12.4 °C 30.00 in /  1015.8 hPa SE 1.7 mph /  2.7 km/h 5.8 mph /  9.3 km/h 65 % 0.00 in /  0 mm
20:21 66.4 °F /  19.1 °C 54.3 °F /  12.4 °C 30.00 in /  1015.8 hPa SSE 0.5 mph /  0.8 km/h 4.6 mph /  7.4 km/h 65 % 0.00 in /  0 mm
20:26 66.4 °F /  19.1 °C 54.7 °F /  12.6 °C 29.99 in /  1015.5 hPa SSE 1.2 mph /  1.9 km/h 3.5 mph /  5.6 km/h 66 % 0.00 in /  0 mm
20:31 66.3 °F /  19.1 °C 55.0 °F /  12.8 °C 30.00 in /  1015.8 hPa SSE 0.6 mph /  1 km/h 4.6 mph /  7.4 km/h 67 % 0.00 in /  0 mm
20:36 66.3 °F /  19.1 °C 55.4 °F /  13 °C 30.00 in /  1015.8 hPa SE 2.4 mph /  3.9 km/h 4.0 mph /  6.4 km/h 68 % 0.00 in /  0 mm
20:41 66.2 °F /  19 °C 55.3 °F /  12.9 °C 30.00 in /  1015.8 hPa SE 3.4 mph /  5.5 km/h 6.9 mph /  11.1 km/h 68 % 0.00 in /  0 mm
20:46 66.1 °F /  18.9 °C 55.6 °F /  13.1 °C 30.00 in /  1015.8 hPa SSE 1.2 mph /  1.9 km/h 3.5 mph /  5.6 km/h 69 % 0.00 in /  0 mm
20:52 65.9 °F /  18.8 °C 55.0 °F /  12.8 °C 30.00 in /  1015.8 hPa ESE 1.2 mph /  1.9 km/h 6.9 mph /  11.1 km/h 68 % 0.00 in /  0 mm
20:57 65.8 °F /  18.8 °C 55.3 °F /  12.9 °C 30.00 in /  1015.8 hPa SE 2.8 mph /  4.5 km/h 5.8 mph /  9.3 km/h 69 % 0.00 in /  0 mm
21:02 65.6 °F /  18.7 °C 55.5 °F /  13.1 °C 30.00 in /  1015.8 hPa SE 2.9 mph /  4.7 km/h 4.6 mph /  7.4 km/h 70 % 0.00 in /  0 mm
21:07 65.5 °F /  18.6 °C 55.5 °F /  13.1 °C 30.00 in /  1015.8 hPa SE 2.8 mph /  4.5 km/h 8.1 mph /  13 km/h 70 % 0.00 in /  0 mm
21:12 65.4 °F /  18.6 °C 55.4 °F /  13 °C 30.00 in /  1015.8 hPa SSE 2.4 mph /  3.9 km/h 5.8 mph /  9.3 km/h 70 % 0.00 in /  0 mm
21:17 65.3 °F /  18.5 °C 55.7 °F /  13.2 °C 30.00 in /  1015.8 hPa SE 0.6 mph /  1 km/h 2.3 mph /  3.7 km/h 71 % 0.00 in /  0 mm
21:22 65.3 °F /  18.5 °C 55.7 °F /  13.2 °C 30.01 in /  1016.1 hPa SE 2.8 mph /  4.5 km/h 4.6 mph /  7.4 km/h 71 % 0.00 in /  0 mm
21:27 65.1 °F /  18.4 °C 55.8 °F /  13.2 °C 30.01 in /  1016.1 hPa SE 4.4 mph /  7.1 km/h 5.8 mph /  9.3 km/h 72 % 0.00 in /  0 mm
21:32 65.0 °F /  18.3 °C 55.8 °F /  13.2 °C 30.00 in /  1015.8 hPa SE 1.2 mph /  1.9 km/h 4.6 mph /  7.4 km/h 72 % 0.00 in /  0 mm
21:37 64.8 °F /  18.2 °C 55.9 °F /  13.3 °C 30.01 in /  1016.1 hPa SE 2.2 mph /  3.5 km/h 5.0 mph /  8 km/h 73 % 0.00 in /  0 mm
21:42 64.6 °F /  18.1 °C 56.1 °F /  13.4 °C 30.01 in /  1016.1 hPa SE 3.1 mph /  5 km/h 5.8 mph /  9.3 km/h 74 % 0.00 in /  0 mm
21:47 64.5 °F /  18.1 °C 56.0 °F /  13.3 °C 30.01 in /  1016.1 hPa SE 1.0 mph /  1.6 km/h 3.5 mph /  5.6 km/h 74 % 0.00 in /  0 mm
21:52 64.3 °F /  17.9 °C 56.2 °F /  13.4 °C 30.01 in /  1016.1 hPa ESE 4.8 mph /  7.7 km/h 8.1 mph /  13 km/h 75 % 0.00 in /  0 mm
21:57 64.1 °F /  17.8 °C 56.0 °F /  13.3 °C 30.01 in /  1016.1 hPa SE 3.2 mph /  5.1 km/h 6.9 mph /  11.1 km/h 75 % 0.00 in /  0 mm
22:02 63.9 °F /  17.7 °C 56.2 °F /  13.4 °C 30.01 in /  1016.1 hPa SE 0.7 mph /  1.1 km/h 3.5 mph /  5.6 km/h 76 % 0.00 in /  0 mm
22:07 63.8 °F /  17.7 °C 56.4 °F /  13.6 °C 30.01 in /  1016.1 hPa SE 0.7 mph /  1.1 km/h 3.5 mph /  5.6 km/h 77 % 0.00 in /  0 mm
22:12 63.7 °F /  17.6 °C 56.4 °F /  13.6 °C 30.02 in /  1016.5 hPa Calm   2.3 mph /  3.7 km/h 77 % 0.00 in /  0 mm
22:17 63.5 °F /  17.5 °C 56.5 °F /  13.6 °C 30.02 in /  1016.5 hPa SE 0.1 mph /  0.2 km/h 1.2 mph /  1.9 km/h 78 % 0.00 in /  0 mm
22:22 63.4 °F /  17.4 °C 56.4 °F /  13.6 °C 30.02 in /  1016.5 hPa SE 0.1 mph /  0.2 km/h 1.0 mph /  1.6 km/h 78 % 0.00 in /  0 mm
22:27 63.3 °F /  17.4 °C 56.7 °F /  13.7 °C 30.01 in /  1016.1 hPa Calm   2.3 mph /  3.7 km/h 79 % 0.00 in /  0 mm
22:32 63.2 °F /  17.3 °C 56.6 °F /  13.7 °C 30.01 in /  1016.1 hPa SE 0.1 mph /  0.2 km/h   79 % 0.00 in /  0 mm
22:37 63.0 °F /  17.2 °C 56.4 °F /  13.6 °C 30.01 in /  1016.1 hPa Calm   1.2 mph /  1.9 km/h 79 % 0.00 in /  0 mm
22:42 63.0 °F /  17.2 °C 56.7 °F /  13.7 °C 30.01 in /  1016.1 hPa Calm     80 % 0.00 in /  0 mm
22:47 62.9 °F /  17.2 °C 56.6 °F /  13.7 °C 30.01 in /  1016.1 hPa Calm     80 % 0.00 in /  0 mm
22:52 62.8 °F /  17.1 °C 56.9 °F /  13.8 °C 30.01 in /  1016.1 hPa Calm     81 % 0.00 in /  0 mm
22:57 62.7 °F /  17.1 °C 56.8 °F /  13.8 °C 30.01 in /  1016.1 hPa Calm     81 % 0.00 in /  0 mm
23:02 62.6 °F /  17 °C 57.0 °F /  13.9 °C 30.01 in /  1016.1 hPa Calm     82 % 0.00 in /  0 mm
23:08 62.5 °F /  16.9 °C 56.9 °F /  13.8 °C 30.01 in /  1016.1 hPa Calm     82 % 0.00 in /  0 mm
23:13 62.5 °F /  16.9 °C 56.9 °F /  13.8 °C 30.02 in /  1016.5 hPa Calm     82 % 0.00 in /  0 mm
23:18 62.4 °F /  16.9 °C 56.8 °F /  13.8 °C 30.01 in /  1016.1 hPa Calm     82 % 0.00 in /  0 mm
23:23 62.4 °F /  16.9 °C 56.8 °F /  13.8 °C 30.02 in /  1016.5 hPa Calm     82 % 0.00 in /  0 mm
23:28 62.4 °F /  16.9 °C 56.8 °F /  13.8 °C 30.01 in /  1016.1 hPa Calm     82 % 0.00 in /  0 mm
23:33 62.3 °F /  16.8 °C 56.7 °F /  13.7 °C 30.01 in /  1016.1 hPa Calm     82 % 0.00 in /  0 mm
23:38 62.3 °F /  16.8 °C 56.7 °F /  13.7 °C 30.01 in /  1016.1 hPa Calm     82 % 0.00 in /  0 mm
23:43 62.3 °F /  16.8 °C 57.1 °F /  13.9 °C 30.01 in /  1016.1 hPa Calm     83 % 0.00 in /  0 mm
23:48 62.2 °F /  16.8 °C 57.0 °F /  13.9 °C 30.01 in /  1016.1 hPa Calm     83 % 0.00 in /  0 mm
23:53 62.2 °F /  16.8 °C 57.0 °F /  13.9 °C 30.01 in /  1016.1 hPa Calm     83 % 0.00 in /  0 mm
23:58 62.2 °F /  16.8 °C 57.0 °F /  13.9 °C 30.01 in /  1016.1 hPa Calm     83 % 0.00 in /  0 mm
Crab Meadow Weather
Compliments of Weather Underground - 3.25 mb

Script developed by  Jim McMurry - jmcmurry@mwt.net Adapted for the template by  Wim van der Kuil - Leuven-Template.eu

Lightning: Lightning is equivalent to the electric power of 100 million light bulbs in your face.